Time;durP1;ratioP1;P1;durP2;ratioP2;P2;SDS_P1;SDS_P2;PMS_P1;PMS_P2;Temp;Humidity;BMP_temperature;BMP_pressure;BME280_temperature;BME280_humidity;BME280_pressure;Samples;Min_cycle;Max_cycle;Signal;HPM_P1;HPM_P2
2023/03/21 00:00:00;;;;;;;15.17;11.50;;;9.50;8.30;;;;;;5082281;28;20492;-79
2023/03/21 00:02:27;;;;;;;19.10;12.67;;;9.50;11.20;;;;;;5084220;28;20878;-79
2023/03/21 00:04:54;;;;;;;16.40;12.33;;;9.50;26.40;;;;;;5079428;28;20461;-78
2023/03/21 00:07:21;;;;;;;12.67;11.40;;;9.50;99.90;;;;;;5097064;28;20444;-77
2023/03/21 00:09:49;;;;;;;13.47;12.07;;;9.50;99.90;;;;;;5101987;28;20503;-77
2023/03/21 00:12:16;;;;;;;16.07;11.13;;;9.20;99.90;;;;;;5099584;28;20457;-78
2023/03/21 00:14:43;;;;;;;13.67;11.40;;;9.60;99.90;;;;;;5088260;28;20482;-79
2023/03/21 00:17:10;;;;;;;12.80;11.43;;;9.40;99.90;;;;;;5092973;28;20470;-78
2023/03/21 00:19:37;;;;;;;14.10;11.53;;;9.40;99.90;;;;;;5095219;28;20419;-78
2023/03/21 00:22:05;;;;;;;25.30;14.50;;;9.30;99.90;;;;;;5094452;28;20418;-78
2023/03/21 00:24:32;;;;;;;13.87;12.40;;;9.30;99.90;;;;;;5093632;28;20455;-79
2023/03/21 00:27:00;;;;;;;13.53;12.10;;;9.20;99.90;;;;;;5094078;28;20440;-79
2023/03/21 00:29:27;;;;;;;12.37;11.07;;;9.20;99.90;;;;;;5088796;28;20447;-79
2023/03/21 00:31:53;;;;;;;15.20;12.70;;;9.20;99.90;;;;;;5091178;28;20448;-80
2023/03/21 00:34:20;;;;;;;13.27;11.57;;;8.80;99.90;;;;;;5086884;28;20490;-80
2023/03/21 00:36:47;;;;;;;16.30;12.70;;;9.20;99.90;;;;;;5084048;28;20507;-79
2023/03/21 00:39:14;;;;;;;19.53;12.80;;;9.20;99.90;;;;;;5081583;28;20530;-79
2023/03/21 00:41:41;;;;;;;14.53;12.73;;;9.10;99.90;;;;;;5085731;28;20439;-79
2023/03/21 00:44:10;;;;;;;13.33;12.03;;;8.90;99.90;;;;;;5080939;28;20482;-79
2023/03/21 00:46:37;;;;;;;14.63;12.70;;;9.10;99.90;;;;;;5081000;28;20531;-79
2023/03/21 00:49:04;;;;;;;13.50;12.20;;;9.00;99.90;;;;;;5082545;28;20448;-78
2023/03/21 00:51:30;;;;;;;17.97;15.00;;;9.20;99.90;;;;;;5080278;28;20422;-79
2023/03/21 00:53:58;;;;;;;15.10;13.50;;;9.10;99.90;;;;;;5080224;28;20948;-79
2023/03/21 00:56:25;;;;;;;14.50;13.00;;;9.10;99.90;;;;;;5079924;28;20462;-79
2023/03/21 00:58:52;;;;;;;17.43;13.00;;;;;;;;;;5079463;28;20453;-79
2023/03/21 01:01:21;;;;;;;16.77;14.90;;;8.60;99.90;;;;;;5080295;28;20447;-80
2023/03/21 01:03:49;;;;;;;14.63;13.13;;;9.10;99.90;;;;;;5081055;28;20468;-79
2023/03/21 01:06:19;;;;;;;18.00;14.97;;;9.00;99.90;;;;;;5084195;28;20473;-79
2023/03/21 01:08:47;;;;;;;15.90;13.60;;;9.00;99.90;;;;;;5089047;28;20454;-79
2023/03/21 01:11:18;;;;;;;16.73;14.90;;;9.10;99.90;;;;;;5088250;28;20465;-80
2023/03/21 01:13:45;;;;;;;18.00;14.80;;;9.00;99.90;;;;;;5079718;28;20405;-79
2023/03/21 01:16:12;;;;;;;16.47;13.63;;;9.00;99.90;;;;;;5084865;28;20468;-79
2023/03/21 01:18:41;;;;;;;18.60;14.40;;;9.00;99.90;;;;;;5087569;28;20481;-79
2023/03/21 01:21:11;;;;;;;15.57;13.87;;;9.00;99.90;;;;;;5086211;28;20466;-79
2023/03/21 01:23:39;;;;;;;19.60;15.10;;;9.00;99.90;;;;;;5079610;28;20483;-79
2023/03/21 01:26:07;;;;;;;23.53;15.43;;;9.00;99.90;;;;;;5079455;28;20476;-79
2023/03/21 01:28:35;;;;;;;21.77;15.20;;;9.10;99.90;;;;;;5089416;28;20458;-79
2023/03/21 01:31:04;;;;;;;18.47;14.47;;;9.10;99.90;;;;;;5085582;28;20455;-78
2023/03/21 01:33:32;;;;;;;20.00;15.57;;;9.10;99.90;;;;;;5084278;28;20418;-79
2023/03/21 01:36:01;;;;;;;21.73;15.30;;;9.00;99.90;;;;;;5089655;28;20561;-78
2023/03/21 01:38:28;;;;;;;18.77;14.67;;;9.10;99.90;;;;;;5087823;28;20769;-78
2023/03/21 01:40:54;;;;;;;18.97;14.53;;;9.00;99.90;;;;;;5078064;28;20516;-79
2023/03/21 01:43:25;;;;;;;19.37;15.00;;;9.00;99.90;;;;;;5076647;28;20472;-79
2023/03/21 01:46:22;;;;;;;19.00;17.00;;;9.00;99.90;;;;;;5077148;28;20530;-79
2023/03/21 01:48:53;;;;;;;22.40;17.33;;;9.00;99.90;;;;;;5078697;28;20431;-78
2023/03/21 01:51:23;;;;;;;20.77;17.77;;;8.90;99.90;;;;;;5079776;28;20448;-79
2023/03/21 01:53:49;;;;;;;22.23;16.97;;;9.00;99.90;;;;;;5077552;28;20442;-79
2023/03/21 01:56:22;;;;;;;23.07;18.30;;;9.00;99.90;;;;;;5079531;28;20461;-78
2023/03/21 01:58:50;;;;;;;25.70;20.67;;;8.90;99.90;;;;;;5079487;28;20945;-78
2023/03/21 02:01:17;;;;;;;30.63;18.47;;;8.90;99.90;;;;;;5076690;28;20443;-79
2023/03/21 02:03:50;;;;;;;23.87;19.80;;;8.80;99.90;;;;;;5075766;28;20512;-78
2023/03/21 02:06:29;;;;;;;22.90;18.23;;;9.00;99.90;;;;;;5076344;28;20471;-78
2023/03/21 02:08:58;;;;;;;22.87;19.57;;;8.90;99.90;;;;;;5075907;28;20435;-78
2023/03/21 02:11:25;;;;;;;25.17;20.10;;;8.80;99.90;;;;;;5077126;28;20449;-79
2023/03/21 02:13:53;;;;;;;29.73;21.97;;;8.80;99.90;;;;;;5077819;28;20460;-79
2023/03/21 02:16:32;;;;;;;28.67;22.47;;;8.80;99.90;;;;;;5078335;28;20466;-79
2023/03/21 02:19:18;;;;;;;26.33;22.20;;;8.90;1.00;;;;;;5080582;28;20421;-78
2023/03/21 02:22:14;;;;;;;30.20;24.33;;;8.80;1.00;;;;;;5079261;28;20431;-78
2023/03/21 02:25:14;;;;;;;28.63;22.77;;;8.80;1.00;;;;;;5080456;28;20841;-78
2023/03/21 02:27:46;;;;;;;29.30;23.30;;;8.80;1.00;;;;;;5078749;28;20477;-78
2023/03/21 02:30:43;;;;;;;35.50;24.00;;;8.70;1.00;;;;;;5077658;28;20432;-78
2023/03/21 02:33:25;;;;;;;31.80;22.70;;;8.80;1.00;;;;;;5077042;28;20439;-79
2023/03/21 02:36:14;;;;;;;34.73;24.70;;;8.70;1.00;;;;;;5076206;28;20506;-79
2023/03/21 02:38:50;;;;;;;33.67;24.07;;;8.80;1.00;;;;;;5076583;28;20889;-79
2023/03/21 02:41:19;;;;;;;28.87;22.37;;;8.70;1.00;;;;;;5076670;28;20807;-79
2023/03/21 02:43:52;;;;;;;30.27;21.77;;;8.70;1.00;;;;;;5076642;28;20505;-79
2023/03/21 02:46:25;;;;;;;33.90;23.57;;;8.60;57.90;;;;;;5078585;28;20509;-78
2023/03/21 02:48:55;;;;;;;31.23;24.43;;;8.60;93.60;;;;;;5075786;28;20902;-79
2023/03/21 02:51:23;;;;;;;29.30;22.20;;;8.40;1.00;;;;;;5075275;28;20775;-78
2023/03/21 02:53:57;;;;;;;27.97;22.77;;;8.70;99.90;;;;;;5077299;28;20450;-78
2023/03/21 02:56:26;;;;;;;27.57;21.70;;;8.60;99.90;;;;;;5089157;22;20498;-80
2023/03/21 02:58:53;;;;;;;32.87;21.50;;;8.60;99.90;;;;;;5069073;28;20406;-80
2023/03/21 03:01:20;;;;;;;35.00;22.30;;;8.60;99.90;;;;;;5069711;28;20534;-80
2023/03/21 03:03:47;;;;;;;31.80;21.90;;;8.50;99.90;;;;;;5072223;28;20450;-80
2023/03/21 03:06:19;;;;;;;34.87;22.97;;;8.50;1.00;;;;;;5070223;28;20518;-81
2023/03/21 03:09:18;;;;;;;30.87;22.70;;;8.50;1.00;;;;;;5070995;28;20436;-82
2023/03/21 03:11:47;;;;;;;30.50;22.73;;;8.50;1.00;;;;;;5055577;28;20458;-81
2023/03/21 03:14:41;;;;;;;32.53;24.50;;;8.50;48.00;;;;;;5062268;28;20968;-82
2023/03/21 03:17:22;;;;;;;39.07;23.67;;;8.50;99.90;;;;;;5055100;28;20481;-82
2023/03/21 03:19:59;;;;;;;35.50;23.43;;;8.60;99.90;;;;;;5059428;28;20501;-83
2023/03/21 03:22:37;;;;;;;34.53;22.07;;;8.40;99.90;;;;;;5063805;28;20454;-83
2023/03/21 03:25:08;;;;;;;30.20;23.57;;;8.40;99.90;;;;;;5063252;28;20464;-82
2023/03/21 03:27:39;;;;;;;32.27;22.87;;;8.30;99.90;;;;;;5058984;28;20480;-82
2023/03/21 03:30:08;;;;;;;32.70;22.77;;;8.30;99.90;;;;;;5057693;28;20436;-83
2023/03/21 03:32:38;;;;;;;32.77;23.60;;;8.20;1.00;;;;;;5063870;28;20447;-83
2023/03/21 03:35:06;;;;;;;30.73;22.17;;;8.20;1.00;;;;;;5058126;28;20402;-81
2023/03/21 03:37:36;;;;;;;33.40;24.07;;;8.00;1.00;;;;;;5056348;28;20908;-82
2023/03/21 03:40:07;;;;;;;36.17;23.80;;;8.30;1.00;;;;;;5055790;28;20466;-82
2023/03/21 03:42:36;;;;;;;32.00;22.57;;;8.20;1.00;;;;;;5055877;28;20798;-82
2023/03/21 03:45:04;;;;;;;28.77;21.20;;;8.30;1.00;;;;;;5054526;28;20489;-82
2023/03/21 03:47:37;;;;;;;37.93;22.67;;;8.20;1.00;;;;;;5057592;28;20500;-80
2023/03/21 03:50:12;;;;;;;34.63;23.23;;;8.20;1.00;;;;;;5063622;28;20505;-81
2023/03/21 03:52:42;;;;;;;35.83;25.17;;;8.20;99.90;;;;;;5062540;28;20445;-82
2023/03/21 03:55:14;;;;;;;33.70;23.07;;;8.10;99.90;;;;;;5060491;28;20507;-82
2023/03/21 03:57:41;;;;;;;37.10;26.07;;;8.10;99.90;;;;;;5057194;28;20569;-82
2023/03/21 04:00:11;;;;;;;36.07;24.93;;;8.10;1.00;;;;;;5054397;28;20582;-82
2023/03/21 04:02:38;;;;;;;34.60;22.93;;;8.20;99.90;;;;;;5054570;28;20436;-82
2023/03/21 04:05:06;;;;;;;32.30;22.90;;;8.30;99.90;;;;;;5053641;28;20458;-82
2023/03/21 04:07:33;;;;;;;28.60;22.07;;;8.40;1.00;;;;;;5054035;28;20467;-83
2023/03/21 04:10:00;;;;;;;35.07;24.27;;;8.10;99.90;;;;;;5057255;28;20456;-82
2023/03/21 04:12:28;;;;;;;31.50;24.07;;;8.10;1.00;;;;;;5057542;28;20439;-82
2023/03/21 04:14:55;;;;;;;39.47;24.60;;;8.10;1.00;;;;;;5057632;28;20920;-82
2023/03/21 04:17:22;;;;;;;31.83;23.17;;;8.20;1.00;;;;;;5058845;28;20558;-82
2023/03/21 04:19:50;;;;;;;32.47;24.00;;;8.20;1.00;;;;;;5059214;28;20458;-82
2023/03/21 04:22:17;;;;;;;34.47;23.00;;;8.20;1.00;;;;;;5057865;28;20434;-83
2023/03/21 04:24:44;;;;;;;36.73;23.70;;;8.20;1.00;;;;;;5058029;28;20474;-82
2023/03/21 04:27:12;;;;;;;35.63;24.93;;;8.20;99.90;;;;;;5058480;28;20506;-82
2023/03/21 04:29:40;;;;;;;31.50;22.27;;;8.20;1.00;;;;;;5058693;28;20438;-82
2023/03/21 04:32:15;;;;;;;37.70;24.13;;;8.10;1.00;;;;;;5058635;28;20451;-82
2023/03/21 04:34:42;;;;;;;32.30;24.33;;;8.10;1.00;;;;;;5061299;28;20526;-81
2023/03/21 04:37:10;;;;;;;39.00;22.93;;;8.10;1.00;;;;;;5068929;28;20534;-82
2023/03/21 04:39:37;;;;;;;29.00;21.53;;;8.20;1.00;;;;;;5061449;28;20516;-82
2023/03/21 04:42:05;;;;;;;34.80;22.10;;;8.20;1.00;;;;;;5058649;28;20452;-82
2023/03/21 04:44:31;;;;;;;30.73;21.70;;;8.20;1.00;;;;;;5058236;28;20451;-83
2023/03/21 04:47:00;;;;;;;33.50;22.20;;;8.30;1.00;;;;;;5058704;28;20907;-84
2023/03/21 04:49:26;;;;;;;35.90;24.00;;;8.30;1.00;;;;;;5058928;28;20447;-82
2023/03/21 04:51:53;;;;;;;33.93;23.50;;;8.20;1.00;;;;;;5073178;28;20508;-80
2023/03/21 04:54:21;;;;;;;33.67;21.90;;;8.20;1.00;;;;;;5073810;28;20434;-82
2023/03/21 04:56:48;;;;;;;32.13;22.10;;;8.10;1.00;;;;;;5059091;28;20537;-81
2023/03/21 04:59:16;;;;;;;34.10;22.47;;;8.20;1.00;;;;;;5058149;28;20440;-81
2023/03/21 05:01:43;;;;;;;33.23;22.93;;;8.20;1.00;;;;;;5057878;28;20466;-82
2023/03/21 05:04:13;;;;;;;32.97;22.73;;;8.20;1.00;;;;;;5057469;28;20459;-81
2023/03/21 05:06:41;;;;;;;40.20;23.90;;;8.20;1.00;;;;;;5056936;28;20502;-80
2023/03/21 05:09:08;;;;;;;28.60;22.67;;;8.10;1.00;;;;;;5057125;28;20455;-81
2023/03/21 05:11:37;;;;;;;34.40;23.23;;;8.10;1.00;;;;;;5056533;28;20459;-81
2023/03/21 05:14:05;;;;;;;39.87;21.43;;;8.10;1.00;;;;;;5057127;28;20514;-81
2023/03/21 05:16:33;;;;;;;36.00;22.20;;;8.10;1.00;;;;;;5056614;28;20468;-81
2023/03/21 05:19:02;;;;;;;36.37;21.30;;;8.00;99.90;;;;;;5056888;28;20460;-81
2023/03/21 05:21:40;;;;;;;30.50;20.30;;;8.10;1.00;;;;;;5055351;28;21041;-81
2023/03/21 05:24:11;;;;;;;38.33;21.90;;;8.00;1.00;;;;;;5057126;28;20410;-81
2023/03/21 05:26:38;;;;;;;34.63;23.97;;;8.00;25.00;;;;;;5057040;28;20544;-81
2023/03/21 05:29:05;;;;;;;34.63;22.77;;;8.10;85.50;;;;;;5057007;28;20964;-83
2023/03/21 05:31:32;;;;;;;32.80;21.77;;;8.10;55.80;;;;;;5057239;28;20451;-83
2023/03/21 05:33:59;;;;;;;36.30;23.63;;;8.10;85.90;;;;;;5056696;28;20461;-83
2023/03/21 05:36:26;;;;;;;35.93;22.93;;;8.00;74.40;;;;;;5056605;28;21016;-83
2023/03/21 05:38:54;;;;;;;34.73;23.60;;;8.10;99.90;;;;;;5056907;28;20421;-83
2023/03/21 05:41:21;;;;;;;36.17;22.57;;;8.10;99.90;;;;;;5057386;28;20479;-83
2023/03/21 05:43:48;;;;;;;31.60;22.27;;;8.20;99.90;;;;;;5056771;28;20487;-81
2023/03/21 05:46:15;;;;;;;39.30;23.80;;;7.80;99.90;;;;;;5056635;28;20489;-81
2023/03/21 05:48:42;;;;;;;38.10;24.33;;;8.10;99.90;;;;;;5057516;28;20526;-82
2023/03/21 05:51:09;;;;;;;37.80;23.83;;;8.40;99.90;;;;;;5057788;28;20849;-82
2023/03/21 05:53:36;;;;;;;31.63;22.40;;;8.20;99.90;;;;;;5058016;28;20439;-82
2023/03/21 05:56:04;;;;;;;38.57;23.60;;;8.30;99.90;;;;;;5060221;28;20514;-81
2023/03/21 05:58:31;;;;;;;34.77;24.80;;;8.30;99.90;;;;;;5058792;28;20439;-81
2023/03/21 06:00:58;;;;;;;36.77;23.80;;;8.20;99.90;;;;;;5058399;28;20538;-82
2023/03/21 06:03:25;;;;;;;36.73;23.57;;;8.30;99.90;;;;;;5056820;28;20446;-81
2023/03/21 06:05:52;;;;;;;40.43;23.00;;;7.50;99.90;;;;;;5056455;28;21013;-81
2023/03/21 06:08:19;;;;;;;36.70;24.00;;;8.30;99.90;;;;;;5062458;28;20840;-81
2023/03/21 06:10:46;;;;;;;37.23;23.60;;;8.20;99.90;;;;;;5063386;28;20426;-80
2023/03/21 06:13:15;;;;;;;40.47;23.00;;;8.20;99.90;;;;;;5069882;28;20447;-81
2023/03/21 06:15:42;;;;;;;33.73;22.47;;;8.10;99.90;;;;;;5076789;28;20432;-80
2023/03/21 06:18:08;;;;;;;34.63;21.43;;;8.20;99.90;;;;;;5078007;28;20433;-82
2023/03/21 06:20:35;;;;;;;41.13;23.87;;;8.50;99.90;;;;;;5069621;28;20534;-81
2023/03/21 06:23:02;;;;;;;31.77;21.50;;;8.10;99.90;;;;;;5066657;28;20449;-81
2023/03/21 06:25:31;;;;;;;32.33;21.67;;;8.50;99.90;;;;;;5059891;28;20483;-81
2023/03/21 06:27:58;;;;;;;36.67;22.53;;;8.40;99.90;;;;;;5058343;28;20479;-81
2023/03/21 06:30:26;;;;;;;35.60;22.47;;;8.30;99.90;;;;;;5057541;28;20465;-81
2023/03/21 06:32:53;;;;;;;33.90;21.93;;;8.30;99.90;;;;;;5058238;28;20450;-80
2023/03/21 06:35:20;;;;;;;32.77;20.77;;;8.30;99.90;;;;;;5065022;28;20443;-81
2023/03/21 06:37:48;;;;;;;31.07;20.93;;;8.30;99.90;;;;;;5058209;28;20882;-82
2023/03/21 06:40:15;;;;;;;39.40;23.20;;;8.10;99.90;;;;;;5058660;28;20450;-82
2023/03/21 06:42:42;;;;;;;37.30;22.50;;;8.30;99.90;;;;;;5058525;28;20444;-81
2023/03/21 06:45:09;;;;;;;34.00;21.67;;;8.40;99.90;;;;;;5062529;28;20531;-81
2023/03/21 06:47:37;;;;;;;39.53;23.40;;;8.40;99.90;;;;;;5065912;28;20468;-81
2023/03/21 06:50:06;;;;;;;41.50;23.20;;;8.40;99.90;;;;;;5059991;28;20418;-82
2023/03/21 06:52:33;;;;;;;42.67;24.83;;;8.40;99.90;;;;;;5055144;28;20455;-82
2023/03/21 06:54:59;;;;;;;35.47;23.13;;;8.40;99.90;;;;;;5055580;28;20821;-83
2023/03/21 06:57:26;;;;;;;41.77;24.30;;;8.40;99.90;;;;;;5055696;28;20468;-82
2023/03/21 06:59:53;;;;;;;37.60;24.57;;;8.40;99.90;;;;;;5056091;28;20983;-82
2023/03/21 07:02:20;;;;;;;36.97;21.90;;;8.40;99.90;;;;;;5056941;28;20515;-82
2023/03/21 07:04:48;;;;;;;37.30;21.53;;;8.50;99.90;;;;;;5055458;28;21035;-83
2023/03/21 07:07:15;;;;;;;39.20;23.30;;;8.60;99.90;;;;;;5055553;28;20491;-83
2023/03/21 07:09:42;;;;;;;39.97;23.80;;;8.60;99.90;;;;;;5055468;28;20452;-82
2023/03/21 07:12:09;;;;;;;39.63;24.40;;;8.50;99.90;;;;;;5055318;28;20935;-83
2023/03/21 07:14:36;;;;;;;42.60;25.80;;;8.40;99.90;;;;;;5055280;28;20448;-83
2023/03/21 07:17:03;;;;;;;39.57;24.10;;;8.30;99.90;;;;;;5055227;28;20477;-82
2023/03/21 07:19:30;;;;;;;43.40;25.27;;;8.30;99.90;;;;;;5056456;28;20819;-82
2023/03/21 07:21:59;;;;;;;40.20;23.67;;;8.20;1.00;;;;;;5056508;28;20482;-82
2023/03/21 07:24:26;;;;;;;45.37;26.00;;;8.30;1.00;;;;;;5056574;28;20547;-82
2023/03/21 07:26:53;;;;;;;43.87;27.30;;;8.50;1.00;;;;;;5055378;28;20532;-82
2023/03/21 07:29:22;;;;;;;40.33;25.80;;;8.40;1.00;;;;;;5055248;28;20535;-82
2023/03/21 07:31:49;;;;;;;43.30;26.67;;;8.20;1.00;;;;;;5055372;28;20451;-82
2023/03/21 07:34:17;;;;;;;44.90;25.33;;;8.40;1.00;;;;;;5054969;28;20457;-81
2023/03/21 07:36:44;;;;;;;41.10;25.00;;;8.40;1.00;;;;;;5055378;28;20812;-81
2023/03/21 07:39:12;;;;;;;42.73;26.83;;;8.50;1.00;;;;;;5055570;28;20546;-82
2023/03/21 07:41:39;;;;;;;43.80;25.73;;;8.60;1.00;;;;;;5055490;28;20488;-82
2023/03/21 07:44:06;;;;;;;43.13;26.07;;;8.60;1.00;;;;;;5057459;28;20479;-83
2023/03/21 07:46:33;;;;;;;43.20;26.40;;;8.60;1.00;;;;;;5059889;28;20492;-81
2023/03/21 07:49:00;;;;;;;40.27;25.40;;;8.60;1.00;;;;;;5061577;28;20543;-83
2023/03/21 07:51:26;;;;;;;41.67;24.53;;;8.80;1.00;;;;;;5063843;28;20447;-83
2023/03/21 07:53:55;;;;;;;41.67;25.50;;;8.70;1.00;;;;;;5060135;28;21010;-82
2023/03/21 07:56:25;;;;;;;42.10;27.00;;;8.70;1.00;;;;;;5062953;28;20571;-82
2023/03/21 07:58:52;;;;;;;35.03;23.10;;;8.80;1.00;;;;;;5072505;28;20479;-81
2023/03/21 08:01:20;;;;;;;39.67;24.20;;;8.70;1.00;;;;;;5067456;28;20551;-82
2023/03/21 08:03:50;;;;;;;41.87;23.60;;;8.60;1.00;;;;;;5060170;28;20456;-82
2023/03/21 08:06:20;;;;;;;39.10;23.63;;;8.70;1.00;;;;;;5060141;28;20487;-82
2023/03/21 08:08:47;;;;;;;41.10;24.30;;;8.70;1.00;;;;;;5059062;28;20868;-83
2023/03/21 08:11:14;;;;;;;34.43;22.83;;;8.60;1.00;;;;;;5058625;28;20447;-82
2023/03/21 08:13:42;;;;;;;36.13;24.27;;;8.70;1.00;;;;;;5060651;28;20451;-81
2023/03/21 08:16:09;;;;;;;36.27;22.97;;;8.70;1.00;;;;;;5062383;28;20470;-82
2023/03/21 08:18:36;;;;;;;40.47;24.20;;;8.70;1.00;;;;;;5060613;28;20444;-82
2023/03/21 08:21:03;;;;;;;43.43;24.83;;;8.80;1.00;;;;;;5058533;28;20518;-82
2023/03/21 08:23:30;;;;;;;37.73;24.37;;;8.90;1.00;;;;;;5058623;28;20844;-83
2023/03/21 08:25:57;;;;;;;35.07;23.03;;;9.10;1.00;;;;;;5063324;28;20493;-82
2023/03/21 08:28:24;;;;;;;36.37;22.43;;;9.00;1.00;;;;;;5065007;28;20452;-82
2023/03/21 08:30:52;;;;;;;35.10;22.30;;;8.90;1.00;;;;;;5062090;28;20458;-81
2023/03/21 08:33:19;;;;;;;34.20;21.27;;;8.80;1.00;;;;;;5063831;28;20457;-82
2023/03/21 08:35:46;;;;;;;38.67;22.97;;;8.70;1.00;;;;;;5060308;28;20539;-82
2023/03/21 08:38:13;;;;;;;39.50;23.50;;;8.80;1.00;;;;;;5058963;28;20952;-83
2023/03/21 08:40:41;;;;;;;37.17;23.47;;;8.80;1.00;;;;;;5058634;28;20443;-83
2023/03/21 08:43:08;;;;;;;38.90;25.87;;;8.90;1.00;;;;;;5058454;28;20500;-82
2023/03/21 08:45:35;;;;;;;41.43;25.70;;;8.80;1.00;;;;;;5058415;28;20448;-82
2023/03/21 08:48:03;;;;;;;36.60;23.67;;;8.90;1.00;;;;;;5057720;28;20454;-82
2023/03/21 08:50:30;;;;;;;42.23;21.97;;;8.90;1.00;;;;;;5058468;28;20451;-81
2023/03/21 08:52:57;;;;;;;42.00;24.37;;;8.90;1.00;;;;;;5058427;28;20461;-82
2023/03/21 08:55:24;;;;;;;44.23;24.20;;;8.90;1.00;;;;;;5058381;28;20468;-82
2023/03/21 08:57:51;;;;;;;37.13;22.00;;;8.90;1.00;;;;;;5116591;22;20493;-79
2023/03/21 09:00:19;;;;;;;37.87;23.87;;;8.90;1.00;;;;;;5088624;28;20420;-79
2023/03/21 09:02:48;;;;;;;42.50;24.70;;;8.90;1.00;;;;;;5084082;28;20439;-79
2023/03/21 09:05:17;;;;;;;30.40;21.77;;;9.00;1.00;;;;;;5087875;28;20454;-80
2023/03/21 09:07:44;;;;;;;41.93;24.50;;;9.00;1.00;;;;;;5087097;28;20548;-79
2023/03/21 09:10:14;;;;;;;33.87;22.97;;;9.00;1.00;;;;;;5088876;28;20866;-79
2023/03/21 09:12:41;;;;;;;38.03;21.20;;;9.00;1.00;;;;;;5091389;28;20441;-80
2023/03/21 09:15:10;;;;;;;41.50;21.10;;;9.00;1.00;;;;;;5089300;28;21017;-79
2023/03/21 09:17:42;;;;;;;38.60;21.50;;;9.00;1.00;;;;;;5089332;28;20549;-79
2023/03/21 09:20:17;;;;;;;45.23;23.80;;;9.00;1.00;;;;;;5090132;28;20439;-79
2023/03/21 09:22:46;;;;;;;32.93;21.50;;;9.00;1.00;;;;;;5088741;28;20444;-79
2023/03/21 09:25:14;;;;;;;35.97;23.33;;;9.00;1.00;;;;;;5089122;28;20443;-79
2023/03/21 09:27:41;;;;;;;39.70;23.73;;;9.10;1.00;;;;;;5087686;28;20496;-79
2023/03/21 09:30:10;;;;;;;37.77;23.33;;;9.00;1.00;;;;;;5088378;28;20460;-79
2023/03/21 09:32:37;;;;;;;40.73;24.00;;;9.10;15.20;;;;;;5087237;28;20451;-79
2023/03/21 09:35:05;;;;;;;44.50;25.73;;;9.20;21.30;;;;;;5088207;28;20451;-79
2023/03/21 09:37:32;;;;;;;30.77;21.77;;;9.20;27.70;;;;;;5086525;28;20471;-79
2023/03/21 09:40:01;;;;;;;36.40;22.77;;;9.20;22.50;;;;;;5081539;28;20515;-79
2023/03/21 09:42:37;;;;;;;36.80;24.07;;;9.30;24.30;;;;;;5081373;28;20538;-79
2023/03/21 09:45:11;;;;;;;36.47;23.93;;;9.40;23.10;;;;;;5077491;28;20430;-79
2023/03/21 09:47:44;;;;;;;41.63;23.13;;;9.50;20.80;;;;;;5076532;28;20469;-79
2023/03/21 09:50:16;;;;;;;40.77;23.67;;;9.50;6.70;;;;;;5076945;28;20933;-79
2023/03/21 09:52:48;;;;;;;39.77;23.70;;;9.50;29.10;;;;;;5077185;28;20427;-79
2023/03/21 09:55:20;;;;;;;37.43;25.47;;;9.60;35.30;;;;;;5077879;28;20455;-79
2023/03/21 09:57:49;;;;;;;42.27;25.90;;;9.70;38.80;;;;;;5085523;28;20543;-79
2023/03/21 10:00:24;;;;;;;41.17;23.17;;;9.70;16.30;;;;;;5096004;28;20470;-78
2023/03/21 10:02:58;;;;;;;40.27;23.23;;;9.80;33.60;;;;;;5082479;28;20431;-78
2023/03/21 10:05:29;;;;;;;37.67;24.80;;;9.90;1.00;;;;;;5078886;28;20440;-78
2023/03/21 10:08:03;;;;;;;40.30;23.90;;;9.90;1.00;;;;;;5075933;28;20494;-78
2023/03/21 10:10:35;;;;;;;35.47;25.90;;;10.00;1.00;;;;;;5077145;28;20500;-79
2023/03/21 10:13:02;;;;;;;33.63;22.27;;;10.10;1.00;;;;;;5078635;28;20442;-79
2023/03/21 10:15:29;;;;;;;34.73;23.60;;;10.10;1.00;;;;;;5081284;28;20942;-79
2023/03/21 10:18:01;;;;;;;32.53;21.70;;;10.20;1.00;;;;;;5088601;28;20554;-78
2023/03/21 10:20:31;;;;;;;35.23;23.03;;;10.20;1.00;;;;;;5087891;28;20501;-80
2023/03/21 10:23:01;;;;;;;38.33;23.97;;;10.30;1.00;;;;;;5083236;28;20510;-79
2023/03/21 10:25:33;;;;;;;40.63;24.97;;;10.40;1.00;;;;;;5079155;28;20513;-79
2023/03/21 10:28:02;;;;;;;30.53;20.63;;;10.40;1.00;;;;;;5078236;28;20565;-79
2023/03/21 10:30:36;;;;;;;37.30;23.37;;;10.40;1.00;;;;;;5078418;28;20447;-79
2023/03/21 10:33:08;;;;;;;33.70;22.13;;;10.40;99.90;;;;;;5089326;28;20460;-78
2023/03/21 10:35:38;;;;;;;37.83;22.07;;;10.40;99.90;;;;;;5089382;28;20849;-78
2023/03/21 10:38:07;;;;;;;30.70;21.60;;;10.50;99.90;;;;;;5087926;28;20490;-79
2023/03/21 10:40:35;;;;;;;30.47;20.67;;;10.40;99.90;;;;;;5079769;28;20450;-79
2023/03/21 10:43:36;;;;;;;33.40;20.67;;;10.40;99.90;;;;;;5078440;28;20538;-79
2023/03/21 10:46:08;;;;;;;27.73;19.53;;;10.50;99.90;;;;;;5078823;28;20884;-79
2023/03/21 10:48:38;;;;;;;25.90;19.33;;;11.00;92.10;;;;;;5081047;28;20547;-80
2023/03/21 10:51:07;;;;;;;25.47;18.43;;;10.60;1.00;;;;;;5078318;28;20497;-79
2023/03/21 10:53:39;;;;;;;30.53;18.40;;;10.70;1.00;;;;;;5089355;28;20476;-79
2023/03/21 10:56:10;;;;;;;28.53;20.23;;;10.70;1.00;;;;;;5088153;28;20435;-79
2023/03/21 10:58:43;;;;;;;32.90;20.87;;;10.50;1.00;;;;;;5087323;28;20446;-79
2023/03/21 11:01:14;;;;;;;29.40;19.07;;;10.40;1.00;;;;;;5083339;28;20424;-79
2023/03/21 11:03:43;;;;;;;28.00;17.63;;;10.50;1.00;;;;;;5080879;28;20432;-79
2023/03/21 11:06:17;;;;;;;31.83;19.40;;;10.60;1.00;;;;;;5081152;28;20609;-79
2023/03/21 11:08:47;;;;;;;26.10;18.70;;;10.60;1.00;;;;;;5083685;28;20429;-79
2023/03/21 11:11:24;;;;;;;27.07;17.97;;;10.60;1.00;;;;;;5077641;28;20473;-79
2023/03/21 11:13:58;;;;;;;29.37;18.67;;;10.70;1.00;;;;;;5076042;28;20431;-79
2023/03/21 11:16:30;;;;;;;28.17;18.83;;;10.60;1.00;;;;;;5076211;28;20438;-79
2023/03/21 11:19:01;;;;;;;33.87;20.17;;;10.60;1.00;;;;;;5077239;28;20495;-79
2023/03/21 11:21:35;;;;;;;25.30;18.17;;;10.70;99.90;;;;;;5077897;28;20915;-80
2023/03/21 11:24:03;;;;;;;24.63;18.10;;;10.80;99.90;;;;;;5077885;28;20508;-79
2023/03/21 11:26:35;;;;;;;26.57;17.93;;;10.50;99.90;;;;;;5077732;28;20442;-79
2023/03/21 11:29:17;;;;;;;26.33;17.90;;;10.80;99.90;;;;;;5077948;28;20443;-79
2023/03/21 11:31:44;;;;;;;22.87;15.73;;;10.90;99.90;;;;;;5077607;28;20820;-79
2023/03/21 11:34:26;;;;;;;28.33;17.17;;;10.90;94.30;;;;;;5078065;28;20454;-79
2023/03/21 11:37:00;;;;;;;27.80;17.50;;;11.10;93.00;;;;;;5077950;28;20472;-79
2023/03/21 11:39:39;;;;;;;25.17;17.37;;;11.20;1.00;;;;;;5077788;28;20433;-79
2023/03/21 11:42:29;;;;;;;30.40;17.93;;;11.10;1.00;;;;;;5075956;28;20434;-79
2023/03/21 11:45:13;;;;;;;24.57;16.13;;;11.20;1.00;;;;;;5076272;28;20424;-79
2023/03/21 11:47:40;;;;;;;25.60;16.93;;;11.00;1.00;;;;;;5076249;28;20843;-79
2023/03/21 11:50:20;;;;;;;22.40;16.33;;;11.10;1.00;;;;;;5077624;28;20448;-79
2023/03/21 11:53:06;;;;;;;21.80;14.73;;;11.00;1.00;;;;;;5077953;28;20430;-79
2023/03/21 11:55:39;;;;;;;22.20;15.40;;;11.10;1.00;;;;;;5078451;28;20444;-79
2023/03/21 11:58:30;;;;;;;24.73;17.53;;;11.20;99.90;;;;;;5078716;28;20521;-79
2023/03/21 12:01:07;;;;;;;23.07;15.20;;;11.30;1.00;;;;;;5078329;28;20813;-79
2023/03/21 12:03:58;;;;;;;21.00;15.67;;;11.40;1.00;;;;;;5077932;28;20481;-79
2023/03/21 12:06:31;;;;;;;20.77;14.53;;;11.30;1.00;;;;;;5075910;28;20441;-79
2023/03/21 12:09:21;;;;;;;20.00;16.67;;;11.30;1.00;;;;;;5079159;28;20475;-79
2023/03/21 12:12:06;;;;;;;21.20;15.20;;;11.20;1.00;;;;;;5078876;28;20428;-80
2023/03/21 12:14:43;;;;;;;21.70;14.87;;;11.30;1.00;;;;;;5078714;28;20412;-80
2023/03/21 12:17:22;;;;;;;20.90;15.40;;;11.30;1.00;;;;;;5078252;28;20468;-80
2023/03/21 12:20:11;;;;;;;21.73;14.67;;;11.80;1.00;;;;;;5078594;28;20867;-80
2023/03/21 12:22:45;;;;;;;19.23;14.30;;;11.30;1.00;;;;;;5078014;28;20442;-79
2023/03/21 12:25:18;;;;;;;25.67;14.00;;;11.20;1.00;;;;;;5079757;28;20450;-79
2023/03/21 12:27:58;;;;;;;28.10;15.93;;;11.20;1.00;;;;;;5079000;28;21024;-79
2023/03/21 12:30:37;;;;;;;31.03;17.40;;;11.40;1.00;;;;;;5079189;28;20405;-79
2023/03/21 12:33:21;;;;;;;24.87;15.70;;;11.50;1.00;;;;;;5079904;28;20868;-79
2023/03/21 12:35:59;;;;;;;20.00;15.80;;;11.30;1.00;;;;;;5087864;28;20455;-79
2023/03/21 12:38:34;;;;;;;28.73;16.40;;;11.20;30.00;;;;;;5090502;28;20447;-79
2023/03/21 12:41:24;;;;;;;22.03;14.80;;;11.20;1.00;;;;;;5091059;28;20949;-79
2023/03/21 12:43:55;;;;;;;21.77;15.20;;;11.40;1.00;;;;;;5088711;28;20437;-79
2023/03/21 12:46:29;;;;;;;25.20;15.10;;;11.90;1.00;;;;;;5087016;28;20441;-80
2023/03/21 12:49:00;;;;;;;23.37;15.67;;;11.60;99.90;;;;;;5087479;28;20513;-80
2023/03/21 12:51:31;;;;;;;23.40;15.57;;;11.50;1.00;;;;;;5081919;28;20446;-79
2023/03/21 12:54:05;;;;;;;22.53;15.07;;;11.50;1.00;;;;;;5081270;28;20414;-80
2023/03/21 12:56:37;;;;;;;25.83;16.73;;;11.50;1.00;;;;;;5089309;28;20480;-79